sensor_id;sensor_type;location;lat;lon;timestamp;P1;durP1;ratioP1;P2;durP2;ratioP2
75429;SDS011;64127;51.488;5.462;2023-03-01T00:00:06;6.07;;;5.57;;
75429;SDS011;64127;51.488;5.462;2023-03-01T00:02:39;7.17;;;5.50;;
75429;SDS011;64127;51.488;5.462;2023-03-01T00:05:11;5.93;;;5.43;;
75429;SDS011;64127;51.488;5.462;2023-03-01T00:07:43;5.87;;;5.27;;
75429;SDS011;64127;51.488;5.462;2023-03-01T00:10:15;6.07;;;5.47;;
75429;SDS011;64127;51.488;5.462;2023-03-01T00:12:47;6.63;;;5.77;;
75429;SDS011;64127;51.488;5.462;2023-03-01T00:15:19;6.07;;;5.57;;
75429;SDS011;64127;51.488;5.462;2023-03-01T00:17:51;6.37;;;5.60;;
75429;SDS011;64127;51.488;5.462;2023-03-01T00:20:23;6.10;;;5.43;;
75429;SDS011;64127;51.488;5.462;2023-03-01T00:22:55;6.90;;;5.30;;
75429;SDS011;64127;51.488;5.462;2023-03-01T00:25:27;6.13;;;5.50;;
75429;SDS011;64127;51.488;5.462;2023-03-01T00:27:59;6.03;;;5.43;;
75429;SDS011;64127;51.488;5.462;2023-03-01T00:30:31;5.53;;;5.03;;
75429;SDS011;64127;51.488;5.462;2023-03-01T00:33:04;5.83;;;5.30;;
75429;SDS011;64127;51.488;5.462;2023-03-01T00:35:36;6.07;;;5.57;;
75429;SDS011;64127;51.488;5.462;2023-03-01T00:38:09;6.73;;;5.63;;
75429;SDS011;64127;51.488;5.462;2023-03-01T00:40:41;5.70;;;5.10;;
75429;SDS011;64127;51.488;5.462;2023-03-01T00:43:13;5.50;;;4.97;;
75429;SDS011;64127;51.488;5.462;2023-03-01T00:45:45;7.33;;;5.87;;
75429;SDS011;64127;51.488;5.462;2023-03-01T00:48:17;6.13;;;5.50;;
75429;SDS011;64127;51.488;5.462;2023-03-01T00:50:49;5.27;;;4.77;;
75429;SDS011;64127;51.488;5.462;2023-03-01T00:53:21;7.13;;;5.40;;
75429;SDS011;64127;51.488;5.462;2023-03-01T00:55:53;6.27;;;5.47;;
75429;SDS011;64127;51.488;5.462;2023-03-01T00:58:25;6.37;;;5.63;;
75429;SDS011;64127;51.488;5.462;2023-03-01T01:00:57;5.90;;;5.30;;
75429;SDS011;64127;51.488;5.462;2023-03-01T01:03:29;5.57;;;5.07;;
75429;SDS011;64127;51.488;5.462;2023-03-01T01:06:01;7.43;;;5.57;;
75429;SDS011;64127;51.488;5.462;2023-03-01T01:08:40;5.60;;;5.10;;
75429;SDS011;64127;51.488;5.462;2023-03-01T01:11:12;5.53;;;5.03;;
75429;SDS011;64127;51.488;5.462;2023-03-01T01:13:45;5.70;;;5.20;;
75429;SDS011;64127;51.488;5.462;2023-03-01T01:16:18;7.57;;;5.83;;
75429;SDS011;64127;51.488;5.462;2023-03-01T01:18:53;7.00;;;5.63;;
75429;SDS011;64127;51.488;5.462;2023-03-01T01:21:25;6.50;;;5.90;;
75429;SDS011;64127;51.488;5.462;2023-03-01T01:23:58;5.97;;;5.40;;
75429;SDS011;64127;51.488;5.462;2023-03-01T01:26:32;6.03;;;5.43;;
75429;SDS011;64127;51.488;5.462;2023-03-01T01:29:05;6.80;;;5.87;;
75429;SDS011;64127;51.488;5.462;2023-03-01T01:31:38;6.73;;;5.50;;
75429;SDS011;64127;51.488;5.462;2023-03-01T01:34:13;6.67;;;5.67;;
75429;SDS011;64127;51.488;5.462;2023-03-01T01:36:49;6.20;;;5.60;;
75429;SDS011;64127;51.488;5.462;2023-03-01T01:39:25;6.00;;;5.40;;
75429;SDS011;64127;51.488;5.462;2023-03-01T01:41:57;6.27;;;5.67;;
75429;SDS011;64127;51.488;5.462;2023-03-01T01:44:29;6.20;;;5.60;;
75429;SDS011;64127;51.488;5.462;2023-03-01T01:47:03;7.03;;;6.33;;
75429;SDS011;64127;51.488;5.462;2023-03-01T01:49:48;6.93;;;6.23;;
75429;SDS011;64127;51.488;5.462;2023-03-01T01:52:27;6.67;;;6.07;;
75429;SDS011;64127;51.488;5.462;2023-03-01T01:55:08;6.10;;;5.60;;
75429;SDS011;64127;51.488;5.462;2023-03-01T01:57:53;6.37;;;5.77;;
75429;SDS011;64127;51.488;5.462;2023-03-01T02:00:29;6.37;;;5.77;;
75429;SDS011;64127;51.488;5.462;2023-03-01T02:06:03;6.07;;;5.47;;
75429;SDS011;64127;51.488;5.462;2023-03-01T02:08:50;6.17;;;5.57;;
75429;SDS011;64127;51.488;5.462;2023-03-01T02:11:24;6.20;;;5.70;;
75429;SDS011;64127;51.488;5.462;2023-03-01T02:13:58;6.70;;;5.67;;
75429;SDS011;64127;51.488;5.462;2023-03-01T02:16:31;6.27;;;5.67;;
75429;SDS011;64127;51.488;5.462;2023-03-01T02:19:04;6.30;;;5.70;;
75429;SDS011;64127;51.488;5.462;2023-03-01T02:27:53;6.30;;;5.70;;
75429;SDS011;64127;51.488;5.462;2023-03-01T02:30:40;5.80;;;5.27;;
75429;SDS011;64127;51.488;5.462;2023-03-01T02:33:34;7.23;;;5.93;;
75429;SDS011;64127;51.488;5.462;2023-03-01T02:36:10;6.40;;;5.70;;
75429;SDS011;64127;51.488;5.462;2023-03-01T02:38:48;6.40;;;5.80;;
75429;SDS011;64127;51.488;5.462;2023-03-01T02:41:25;6.20;;;5.60;;
75429;SDS011;64127;51.488;5.462;2023-03-01T02:44:02;7.30;;;5.87;;
75429;SDS011;64127;51.488;5.462;2023-03-01T02:46:41;6.00;;;5.40;;
75429;SDS011;64127;51.488;5.462;2023-03-01T02:55:19;9.40;;;5.60;;
75429;SDS011;64127;51.488;5.462;2023-03-01T02:57:51;6.57;;;5.60;;
75429;SDS011;64127;51.488;5.462;2023-03-01T03:00:24;6.50;;;5.90;;
75429;SDS011;64127;51.488;5.462;2023-03-01T03:03:05;6.30;;;5.70;;
75429;SDS011;64127;51.488;5.462;2023-03-01T03:05:38;6.30;;;5.70;;
75429;SDS011;64127;51.488;5.462;2023-03-01T03:08:10;6.10;;;5.53;;
75429;SDS011;64127;51.488;5.462;2023-03-01T03:10:43;6.17;;;5.57;;
75429;SDS011;64127;51.488;5.462;2023-03-01T03:13:15;5.70;;;5.17;;
75429;SDS011;64127;51.488;5.462;2023-03-01T03:15:48;7.20;;;5.77;;
75429;SDS011;64127;51.488;5.462;2023-03-01T03:18:20;6.33;;;5.73;;
75429;SDS011;64127;51.488;5.462;2023-03-01T03:20:52;5.93;;;5.33;;
75429;SDS011;64127;51.488;5.462;2023-03-01T03:23:25;7.27;;;6.20;;
75429;SDS011;64127;51.488;5.462;2023-03-01T03:25:57;6.67;;;5.60;;
75429;SDS011;64127;51.488;5.462;2023-03-01T03:28:30;5.70;;;5.20;;
75429;SDS011;64127;51.488;5.462;2023-03-01T03:31:03;6.17;;;5.57;;
75429;SDS011;64127;51.488;5.462;2023-03-01T03:33:39;5.90;;;5.30;;
75429;SDS011;64127;51.488;5.462;2023-03-01T03:36:14;6.37;;;5.77;;
75429;SDS011;64127;51.488;5.462;2023-03-01T03:38:49;5.60;;;5.00;;
75429;SDS011;64127;51.488;5.462;2023-03-01T03:41:21;5.53;;;5.03;;
75429;SDS011;64127;51.488;5.462;2023-03-01T03:43:53;6.17;;;5.43;;
75429;SDS011;64127;51.488;5.462;2023-03-01T03:46:25;6.43;;;5.83;;
75429;SDS011;64127;51.488;5.462;2023-03-01T03:48:57;6.93;;;5.90;;
75429;SDS011;64127;51.488;5.462;2023-03-01T03:51:29;6.53;;;5.53;;
75429;SDS011;64127;51.488;5.462;2023-03-01T03:54:01;6.67;;;5.70;;
75429;SDS011;64127;51.488;5.462;2023-03-01T03:56:33;6.00;;;5.50;;
75429;SDS011;64127;51.488;5.462;2023-03-01T03:59:06;6.17;;;5.50;;
75429;SDS011;64127;51.488;5.462;2023-03-01T04:01:38;6.40;;;5.77;;
75429;SDS011;64127;51.488;5.462;2023-03-01T04:04:10;7.37;;;5.77;;
75429;SDS011;64127;51.488;5.462;2023-03-01T04:06:41;7.47;;;5.67;;
75429;SDS011;64127;51.488;5.462;2023-03-01T04:09:13;5.97;;;5.37;;
75429;SDS011;64127;51.488;5.462;2023-03-01T04:11:45;6.20;;;5.60;;
75429;SDS011;64127;51.488;5.462;2023-03-01T04:14:17;6.23;;;5.27;;
75429;SDS011;64127;51.488;5.462;2023-03-01T04:16:49;6.40;;;5.60;;
75429;SDS011;64127;51.488;5.462;2023-03-01T04:19:21;6.37;;;5.77;;
75429;SDS011;64127;51.488;5.462;2023-03-01T04:21:53;6.93;;;5.60;;
75429;SDS011;64127;51.488;5.462;2023-03-01T04:24:25;6.50;;;5.80;;
75429;SDS011;64127;51.488;5.462;2023-03-01T04:26:57;6.63;;;5.73;;
75429;SDS011;64127;51.488;5.462;2023-03-01T04:29:29;5.90;;;5.23;;
75429;SDS011;64127;51.488;5.462;2023-03-01T04:32:01;6.77;;;5.57;;
75429;SDS011;64127;51.488;5.462;2023-03-01T04:34:34;6.23;;;5.63;;
75429;SDS011;64127;51.488;5.462;2023-03-01T04:37:06;6.10;;;5.50;;
75429;SDS011;64127;51.488;5.462;2023-03-01T04:39:40;7.40;;;5.73;;
75429;SDS011;64127;51.488;5.462;2023-03-01T04:42:16;6.20;;;5.03;;
75429;SDS011;64127;51.488;5.462;2023-03-01T04:44:49;6.03;;;5.43;;
75429;SDS011;64127;51.488;5.462;2023-03-01T04:47:24;6.20;;;5.57;;
75429;SDS011;64127;51.488;5.462;2023-03-01T04:49:56;7.00;;;5.60;;
75429;SDS011;64127;51.488;5.462;2023-03-01T04:52:28;5.87;;;5.27;;
75429;SDS011;64127;51.488;5.462;2023-03-01T04:55:00;6.73;;;5.60;;
75429;SDS011;64127;51.488;5.462;2023-03-01T04:57:32;6.27;;;5.50;;
75429;SDS011;64127;51.488;5.462;2023-03-01T05:00:06;6.60;;;5.90;;
75429;SDS011;64127;51.488;5.462;2023-03-01T05:05:35;7.50;;;5.10;;
75429;SDS011;64127;51.488;5.462;2023-03-01T05:08:10;5.90;;;5.30;;
75429;SDS011;64127;51.488;5.462;2023-03-01T05:10:50;5.83;;;5.00;;
75429;SDS011;64127;51.488;5.462;2023-03-01T05:13:23;5.57;;;5.07;;
75429;SDS011;64127;51.488;5.462;2023-03-01T05:15:57;5.30;;;4.80;;
75429;SDS011;64127;51.488;5.462;2023-03-01T05:18:32;8.17;;;5.20;;
75429;SDS011;64127;51.488;5.462;2023-03-01T05:21:09;7.53;;;5.20;;
75429;SDS011;64127;51.488;5.462;2023-03-01T05:23:44;8.33;;;5.30;;
75429;SDS011;64127;51.488;5.462;2023-03-01T05:26:19;5.97;;;4.93;;
75429;SDS011;64127;51.488;5.462;2023-03-01T05:28:58;6.37;;;5.40;;
75429;SDS011;64127;51.488;5.462;2023-03-01T05:31:31;6.83;;;5.07;;
75429;SDS011;64127;51.488;5.462;2023-03-01T05:34:03;6.23;;;5.13;;
75429;SDS011;64127;51.488;5.462;2023-03-01T05:36:35;6.70;;;5.20;;
75429;SDS011;64127;51.488;5.462;2023-03-01T05:39:07;6.13;;;5.50;;
75429;SDS011;64127;51.488;5.462;2023-03-01T05:41:39;5.53;;;4.93;;
75429;SDS011;64127;51.488;5.462;2023-03-01T05:44:11;6.00;;;5.43;;
75429;SDS011;64127;51.488;5.462;2023-03-01T05:46:43;5.73;;;5.23;;
75429;SDS011;64127;51.488;5.462;2023-03-01T05:49:16;6.23;;;5.40;;
75429;SDS011;64127;51.488;5.462;2023-03-01T05:51:49;7.10;;;5.23;;
75429;SDS011;64127;51.488;5.462;2023-03-01T05:54:24;6.20;;;5.50;;
75429;SDS011;64127;51.488;5.462;2023-03-01T05:56:56;7.10;;;5.43;;
75429;SDS011;64127;51.488;5.462;2023-03-01T05:59:28;5.93;;;5.33;;
75429;SDS011;64127;51.488;5.462;2023-03-01T06:01:59;6.43;;;5.33;;
75429;SDS011;64127;51.488;5.462;2023-03-01T06:04:31;8.23;;;5.67;;
75429;SDS011;64127;51.488;5.462;2023-03-01T06:07:03;6.57;;;5.87;;
75429;SDS011;64127;51.488;5.462;2023-03-01T06:09:35;6.43;;;5.50;;
75429;SDS011;64127;51.488;5.462;2023-03-01T06:12:07;6.27;;;5.33;;
75429;SDS011;64127;51.488;5.462;2023-03-01T06:14:39;8.90;;;5.40;;
75429;SDS011;64127;51.488;5.462;2023-03-01T06:17:11;7.47;;;5.50;;
75429;SDS011;64127;51.488;5.462;2023-03-01T06:19:43;7.37;;;5.67;;
75429;SDS011;64127;51.488;5.462;2023-03-01T06:22:15;6.37;;;5.77;;
75429;SDS011;64127;51.488;5.462;2023-03-01T06:24:47;8.47;;;5.70;;
75429;SDS011;64127;51.488;5.462;2023-03-01T06:27:19;7.67;;;6.03;;
75429;SDS011;64127;51.488;5.462;2023-03-01T06:29:51;8.17;;;5.70;;
75429;SDS011;64127;51.488;5.462;2023-03-01T06:32:23;6.20;;;5.60;;
75429;SDS011;64127;51.488;5.462;2023-03-01T06:34:55;7.70;;;6.17;;
75429;SDS011;64127;51.488;5.462;2023-03-01T06:37:29;7.40;;;5.90;;
75429;SDS011;64127;51.488;5.462;2023-03-01T06:40:02;7.63;;;5.70;;
75429;SDS011;64127;51.488;5.462;2023-03-01T06:42:39;6.53;;;5.83;;
75429;SDS011;64127;51.488;5.462;2023-03-01T06:45:15;11.03;;;6.10;;
75429;SDS011;64127;51.488;5.462;2023-03-01T06:47:48;7.17;;;5.53;;
75429;SDS011;64127;51.488;5.462;2023-03-01T06:50:21;7.03;;;6.27;;
75429;SDS011;64127;51.488;5.462;2023-03-01T06:52:56;9.47;;;5.97;;
75429;SDS011;64127;51.488;5.462;2023-03-01T06:55:29;7.23;;;5.60;;
75429;SDS011;64127;51.488;5.462;2023-03-01T06:58:01;8.47;;;6.23;;
75429;SDS011;64127;51.488;5.462;2023-03-01T07:00:34;6.67;;;6.00;;
75429;SDS011;64127;51.488;5.462;2023-03-01T07:03:06;8.53;;;6.13;;
75429;SDS011;64127;51.488;5.462;2023-03-01T07:05:39;7.73;;;6.30;;
75429;SDS011;64127;51.488;5.462;2023-03-01T07:08:12;9.40;;;6.43;;
75429;SDS011;64127;51.488;5.462;2023-03-01T07:10:44;7.27;;;5.93;;
75429;SDS011;64127;51.488;5.462;2023-03-01T07:13:16;6.10;;;5.50;;
75429;SDS011;64127;51.488;5.462;2023-03-01T07:15:48;7.10;;;6.13;;
75429;SDS011;64127;51.488;5.462;2023-03-01T07:18:20;6.93;;;6.03;;
75429;SDS011;64127;51.488;5.462;2023-03-01T07:20:52;6.83;;;6.03;;
75429;SDS011;64127;51.488;5.462;2023-03-01T07:23:24;8.00;;;6.53;;
75429;SDS011;64127;51.488;5.462;2023-03-01T07:25:56;8.50;;;6.17;;
75429;SDS011;64127;51.488;5.462;2023-03-01T07:28:28;6.93;;;6.20;;
75429;SDS011;64127;51.488;5.462;2023-03-01T07:31:02;7.23;;;6.43;;
75429;SDS011;64127;51.488;5.462;2023-03-01T07:33:34;7.67;;;6.87;;
75429;SDS011;64127;51.488;5.462;2023-03-01T07:36:06;8.60;;;6.23;;
75429;SDS011;64127;51.488;5.462;2023-03-01T07:38:40;7.53;;;6.43;;
75429;SDS011;64127;51.488;5.462;2023-03-01T07:41:12;9.17;;;6.13;;
75429;SDS011;64127;51.488;5.462;2023-03-01T07:43:44;7.13;;;5.83;;
75429;SDS011;64127;51.488;5.462;2023-03-01T07:46:16;7.83;;;6.40;;
75429;SDS011;64127;51.488;5.462;2023-03-01T07:48:50;7.50;;;6.70;;
75429;SDS011;64127;51.488;5.462;2023-03-01T07:51:22;10.40;;;6.87;;
75429;SDS011;64127;51.488;5.462;2023-03-01T07:53:54;8.13;;;6.63;;
75429;SDS011;64127;51.488;5.462;2023-03-01T07:56:26;7.70;;;6.90;;
75429;SDS011;64127;51.488;5.462;2023-03-01T07:58:58;6.77;;;6.00;;
75429;SDS011;64127;51.488;5.462;2023-03-01T08:01:31;6.63;;;6.00;;
75429;SDS011;64127;51.488;5.462;2023-03-01T08:04:03;8.47;;;6.53;;
75429;SDS011;64127;51.488;5.462;2023-03-01T08:06:38;9.63;;;7.00;;
75429;SDS011;64127;51.488;5.462;2023-03-01T08:09:10;6.93;;;6.23;;
75429;SDS011;64127;51.488;5.462;2023-03-01T08:11:42;7.73;;;6.77;;
75429;SDS011;64127;51.488;5.462;2023-03-01T08:14:14;7.73;;;6.77;;
75429;SDS011;64127;51.488;5.462;2023-03-01T08:16:48;7.47;;;6.77;;
75429;SDS011;64127;51.488;5.462;2023-03-01T08:19:21;6.97;;;6.37;;
75429;SDS011;64127;51.488;5.462;2023-03-01T08:21:53;8.27;;;6.47;;
75429;SDS011;64127;51.488;5.462;2023-03-01T08:24:29;8.17;;;7.00;;
75429;SDS011;64127;51.488;5.462;2023-03-01T08:27:01;7.47;;;6.67;;
75429;SDS011;64127;51.488;5.462;2023-03-01T08:29:34;8.13;;;6.43;;
75429;SDS011;64127;51.488;5.462;2023-03-01T08:32:06;7.60;;;6.90;;
75429;SDS011;64127;51.488;5.462;2023-03-01T08:34:38;6.87;;;6.03;;
75429;SDS011;64127;51.488;5.462;2023-03-01T08:37:12;9.37;;;7.30;;
75429;SDS011;64127;51.488;5.462;2023-03-01T08:39:44;8.83;;;6.87;;
75429;SDS011;64127;51.488;5.462;2023-03-01T08:42:17;7.50;;;6.63;;
75429;SDS011;64127;51.488;5.462;2023-03-01T08:44:49;7.37;;;6.67;;
75429;SDS011;64127;51.488;5.462;2023-03-01T08:47:21;8.07;;;6.63;;
75429;SDS011;64127;51.488;5.462;2023-03-01T08:49:53;7.83;;;7.03;;
75429;SDS011;64127;51.488;5.462;2023-03-01T08:52:25;7.93;;;6.60;;
75429;SDS011;64127;51.488;5.462;2023-03-01T08:54:57;7.07;;;6.37;;
75429;SDS011;64127;51.488;5.462;2023-03-01T08:57:30;7.57;;;6.30;;
75429;SDS011;64127;51.488;5.462;2023-03-01T09:00:02;6.93;;;6.33;;
75429;SDS011;64127;51.488;5.462;2023-03-01T09:02:39;6.83;;;6.23;;
75429;SDS011;64127;51.488;5.462;2023-03-01T09:05:11;8.93;;;6.73;;
75429;SDS011;64127;51.488;5.462;2023-03-01T09:07:43;7.43;;;6.50;;
75429;SDS011;64127;51.488;5.462;2023-03-01T09:10:15;7.17;;;6.30;;
75429;SDS011;64127;51.488;5.462;2023-03-01T09:12:47;6.80;;;6.10;;
75429;SDS011;64127;51.488;5.462;2023-03-01T09:15:19;5.83;;;5.30;;
75429;SDS011;64127;51.488;5.462;2023-03-01T09:17:51;7.33;;;6.47;;
75429;SDS011;64127;51.488;5.462;2023-03-01T09:20:23;6.70;;;6.10;;
75429;SDS011;64127;51.488;5.462;2023-03-01T09:22:55;7.03;;;5.90;;
75429;SDS011;64127;51.488;5.462;2023-03-01T09:25:27;7.37;;;6.47;;
75429;SDS011;64127;51.488;5.462;2023-03-01T09:27:59;7.63;;;6.50;;
75429;SDS011;64127;51.488;5.462;2023-03-01T09:30:32;6.57;;;5.60;;
75429;SDS011;64127;51.488;5.462;2023-03-01T09:33:04;6.60;;;6.00;;
75429;SDS011;64127;51.488;5.462;2023-03-01T09:35:36;7.77;;;6.30;;
75429;SDS011;64127;51.488;5.462;2023-03-01T09:38:09;6.93;;;6.03;;
75429;SDS011;64127;51.488;5.462;2023-03-01T09:40:43;7.33;;;6.43;;
75429;SDS011;64127;51.488;5.462;2023-03-01T09:46:03;6.93;;;6.23;;
75429;SDS011;64127;51.488;5.462;2023-03-01T09:48:41;6.70;;;6.00;;
75429;SDS011;64127;51.488;5.462;2023-03-01T09:51:27;7.97;;;5.93;;
75429;SDS011;64127;51.488;5.462;2023-03-01T09:54:04;6.73;;;6.03;;
75429;SDS011;64127;51.488;5.462;2023-03-01T09:56:41;7.60;;;6.03;;
75429;SDS011;64127;51.488;5.462;2023-03-01T10:05:47;8.53;;;5.80;;
75429;SDS011;64127;51.488;5.462;2023-03-01T10:11:37;7.27;;;6.57;;
75429;SDS011;64127;51.488;5.462;2023-03-01T10:19:58;6.70;;;6.10;;
75429;SDS011;64127;51.488;5.462;2023-03-01T10:23:09;7.00;;;6.00;;
75429;SDS011;64127;51.488;5.462;2023-03-01T10:29:05;6.23;;;5.63;;
75429;SDS011;64127;51.488;5.462;2023-03-01T10:34:28;7.10;;;5.90;;
75429;SDS011;64127;51.488;5.462;2023-03-01T10:37:19;7.10;;;6.40;;
75429;SDS011;64127;51.488;5.462;2023-03-01T10:42:31;7.53;;;6.50;;
75429;SDS011;64127;51.488;5.462;2023-03-01T10:50:51;8.00;;;7.20;;
75429;SDS011;64127;51.488;5.462;2023-03-01T10:53:42;8.07;;;6.77;;
75429;SDS011;64127;51.488;5.462;2023-03-01T10:56:21;7.53;;;6.83;;
75429;SDS011;64127;51.488;5.462;2023-03-01T10:59:00;7.13;;;6.43;;
75429;SDS011;64127;51.488;5.462;2023-03-01T11:01:36;9.07;;;7.30;;
75429;SDS011;64127;51.488;5.462;2023-03-01T11:06:44;7.30;;;6.60;;
75429;SDS011;64127;51.488;5.462;2023-03-01T11:09:32;7.50;;;6.80;;
75429;SDS011;64127;51.488;5.462;2023-03-01T11:12:13;7.83;;;7.13;;
75429;SDS011;64127;51.488;5.462;2023-03-01T11:14:48;7.20;;;6.50;;
75429;SDS011;64127;51.488;5.462;2023-03-01T11:17:28;7.63;;;6.93;;
75429;SDS011;64127;51.488;5.462;2023-03-01T11:20:34;7.83;;;7.03;;
75429;SDS011;64127;51.488;5.462;2023-03-01T11:23:09;8.27;;;7.40;;
75429;SDS011;64127;51.488;5.462;2023-03-01T11:25:49;8.03;;;7.33;;
75429;SDS011;64127;51.488;5.462;2023-03-01T11:28:27;8.57;;;7.40;;
75429;SDS011;64127;51.488;5.462;2023-03-01T11:31:07;8.37;;;7.43;;
75429;SDS011;64127;51.488;5.462;2023-03-01T11:42:15;7.67;;;6.70;;
75429;SDS011;64127;51.488;5.462;2023-03-01T11:44:56;7.83;;;7.03;;
75429;SDS011;64127;51.488;5.462;2023-03-01T11:47:41;7.40;;;6.70;;
75429;SDS011;64127;51.488;5.462;2023-03-01T11:50:28;7.80;;;7.10;;
75429;SDS011;64127;51.488;5.462;2023-03-01T12:01:41;7.17;;;6.47;;
75429;SDS011;64127;51.488;5.462;2023-03-01T12:10:50;7.10;;;6.27;;
75429;SDS011;64127;51.488;5.462;2023-03-01T12:26:17;7.00;;;6.30;;
75429;SDS011;64127;51.488;5.462;2023-03-01T12:44:04;6.20;;;5.37;;
75429;SDS011;64127;51.488;5.462;2023-03-01T12:47:02;6.20;;;5.60;;
75429;SDS011;64127;51.488;5.462;2023-03-01T12:49:51;6.90;;;6.20;;
75429;SDS011;64127;51.488;5.462;2023-03-01T12:52:41;6.17;;;5.67;;
75429;SDS011;64127;51.488;5.462;2023-03-01T12:55:29;6.10;;;5.60;;
75429;SDS011;64127;51.488;5.462;2023-03-01T12:58:28;6.43;;;5.80;;
75429;SDS011;64127;51.488;5.462;2023-03-01T13:01:26;6.33;;;5.73;;
75429;SDS011;64127;51.488;5.462;2023-03-01T13:07:37;6.53;;;5.93;;
75429;SDS011;64127;51.488;5.462;2023-03-01T13:13:22;6.23;;;5.70;;
75429;SDS011;64127;51.488;5.462;2023-03-01T13:15:57;6.50;;;5.90;;
75429;SDS011;64127;51.488;5.462;2023-03-01T13:22:26;6.47;;;5.87;;
75429;SDS011;64127;51.488;5.462;2023-03-01T13:27:49;6.40;;;5.80;;
75429;SDS011;64127;51.488;5.462;2023-03-01T13:35:58;6.40;;;5.23;;
75429;SDS011;64127;51.488;5.462;2023-03-01T13:41:49;6.30;;;5.70;;
75429;SDS011;64127;51.488;5.462;2023-03-01T13:49:48;6.20;;;5.57;;
75429;SDS011;64127;51.488;5.462;2023-03-01T13:57:59;6.60;;;5.37;;
75429;SDS011;64127;51.488;5.462;2023-03-01T14:00:37;6.07;;;5.50;;
75429;SDS011;64127;51.488;5.462;2023-03-01T14:05:58;5.97;;;5.47;;
75429;SDS011;64127;51.488;5.462;2023-03-01T14:08:49;6.23;;;5.63;;
75429;SDS011;64127;51.488;5.462;2023-03-01T14:20:17;6.83;;;6.00;;
75429;SDS011;64127;51.488;5.462;2023-03-01T14:23:08;5.93;;;5.43;;
75429;SDS011;64127;51.488;5.462;2023-03-01T14:25:56;7.37;;;5.77;;
75429;SDS011;64127;51.488;5.462;2023-03-01T14:28:30;6.10;;;5.17;;
75429;SDS011;64127;51.488;5.462;2023-03-01T14:34:24;5.70;;;5.10;;
75429;SDS011;64127;51.488;5.462;2023-03-01T14:36:56;6.10;;;5.53;;
75429;SDS011;64127;51.488;5.462;2023-03-01T14:39:41;6.50;;;5.90;;
75429;SDS011;64127;51.488;5.462;2023-03-01T14:42:13;6.00;;;5.40;;
75429;SDS011;64127;51.488;5.462;2023-03-01T14:44:47;5.90;;;5.30;;
75429;SDS011;64127;51.488;5.462;2023-03-01T14:47:27;6.37;;;5.50;;
75429;SDS011;64127;51.488;5.462;2023-03-01T14:50:04;27.73;;;7.30;;
75429;SDS011;64127;51.488;5.462;2023-03-01T14:52:59;7.30;;;5.40;;
75429;SDS011;64127;51.488;5.462;2023-03-01T14:55:37;6.67;;;6.00;;
75429;SDS011;64127;51.488;5.462;2023-03-01T14:58:14;6.70;;;5.93;;
75429;SDS011;64127;51.488;5.462;2023-03-01T15:03:30;5.50;;;5.00;;
75429;SDS011;64127;51.488;5.462;2023-03-01T15:06:18;6.03;;;5.43;;
75429;SDS011;64127;51.488;5.462;2023-03-01T15:08:54;5.97;;;5.37;;
75429;SDS011;64127;51.488;5.462;2023-03-01T15:11:29;6.27;;;5.67;;
75429;SDS011;64127;51.488;5.462;2023-03-01T15:14:05;6.63;;;6.03;;
75429;SDS011;64127;51.488;5.462;2023-03-01T15:17:56;8.13;;;5.90;;
75429;SDS011;64127;51.488;5.462;2023-03-01T15:20:26;6.30;;;5.80;;
75429;SDS011;64127;51.488;5.462;2023-03-01T15:23:03;6.43;;;5.83;;
75429;SDS011;64127;51.488;5.462;2023-03-01T15:25:36;6.57;;;5.90;;
75429;SDS011;64127;51.488;5.462;2023-03-01T15:28:17;8.63;;;5.87;;
75429;SDS011;64127;51.488;5.462;2023-03-01T15:30:55;6.53;;;5.93;;
75429;SDS011;64127;51.488;5.462;2023-03-01T15:33:36;6.70;;;6.03;;
75429;SDS011;64127;51.488;5.462;2023-03-01T15:39:03;6.83;;;6.07;;
75429;SDS011;64127;51.488;5.462;2023-03-01T15:41:38;6.83;;;6.23;;
75429;SDS011;64127;51.488;5.462;2023-03-01T15:44:30;8.60;;;6.33;;
75429;SDS011;64127;51.488;5.462;2023-03-01T15:47:25;6.97;;;6.37;;
75429;SDS011;64127;51.488;5.462;2023-03-01T15:50:01;7.03;;;6.33;;
75429;SDS011;64127;51.488;5.462;2023-03-01T15:52:35;6.60;;;6.00;;
75429;SDS011;64127;51.488;5.462;2023-03-01T15:55:34;7.23;;;6.53;;
75429;SDS011;64127;51.488;5.462;2023-03-01T16:00:45;8.40;;;6.60;;
75429;SDS011;64127;51.488;5.462;2023-03-01T16:03:31;7.20;;;6.50;;
75429;SDS011;64127;51.488;5.462;2023-03-01T16:06:03;7.40;;;6.70;;
75429;SDS011;64127;51.488;5.462;2023-03-01T16:08:35;6.97;;;6.37;;
75429;SDS011;64127;51.488;5.462;2023-03-01T16:11:11;7.40;;;6.70;;
75429;SDS011;64127;51.488;5.462;2023-03-01T16:13:50;6.83;;;6.23;;
75429;SDS011;64127;51.488;5.462;2023-03-01T16:16:22;7.70;;;7.00;;
75429;SDS011;64127;51.488;5.462;2023-03-01T16:18:54;8.53;;;6.47;;
75429;SDS011;64127;51.488;5.462;2023-03-01T16:21:26;7.87;;;7.13;;
75429;SDS011;64127;51.488;5.462;2023-03-01T16:23:58;8.63;;;7.60;;
75429;SDS011;64127;51.488;5.462;2023-03-01T16:26:30;8.47;;;6.67;;
75429;SDS011;64127;51.488;5.462;2023-03-01T16:29:03;7.00;;;6.40;;
75429;SDS011;64127;51.488;5.462;2023-03-01T16:31:38;8.17;;;7.37;;
75429;SDS011;64127;51.488;5.462;2023-03-01T16:34:11;7.57;;;6.87;;
75429;SDS011;64127;51.488;5.462;2023-03-01T16:36:43;7.57;;;6.83;;
75429;SDS011;64127;51.488;5.462;2023-03-01T16:39:15;7.83;;;6.87;;
75429;SDS011;64127;51.488;5.462;2023-03-01T16:41:47;7.57;;;6.87;;
75429;SDS011;64127;51.488;5.462;2023-03-01T16:44:19;7.90;;;7.10;;
75429;SDS011;64127;51.488;5.462;2023-03-01T16:46:52;7.87;;;7.17;;
75429;SDS011;64127;51.488;5.462;2023-03-01T16:49:24;7.70;;;6.83;;
75429;SDS011;64127;51.488;5.462;2023-03-01T16:51:56;8.17;;;7.37;;
75429;SDS011;64127;51.488;5.462;2023-03-01T16:54:28;8.40;;;7.60;;
75429;SDS011;64127;51.488;5.462;2023-03-01T16:57:00;9.80;;;7.97;;
75429;SDS011;64127;51.488;5.462;2023-03-01T16:59:32;9.37;;;8.37;;
75429;SDS011;64127;51.488;5.462;2023-03-01T17:02:08;10.10;;;8.23;;
75429;SDS011;64127;51.488;5.462;2023-03-01T17:04:43;11.90;;;8.10;;
75429;SDS011;64127;51.488;5.462;2023-03-01T17:07:15;9.33;;;8.33;;
75429;SDS011;64127;51.488;5.462;2023-03-01T17:09:47;9.23;;;8.27;;
75429;SDS011;64127;51.488;5.462;2023-03-01T17:12:19;9.60;;;7.93;;
75429;SDS011;64127;51.488;5.462;2023-03-01T17:14:51;11.03;;;8.47;;
75429;SDS011;64127;51.488;5.462;2023-03-01T17:17:23;9.43;;;8.00;;
75429;SDS011;64127;51.488;5.462;2023-03-01T17:19:56;8.60;;;7.70;;
75429;SDS011;64127;51.488;5.462;2023-03-01T17:22:28;8.80;;;7.90;;
75429;SDS011;64127;51.488;5.462;2023-03-01T17:25:00;8.20;;;7.40;;
75429;SDS011;64127;51.488;5.462;2023-03-01T17:27:33;9.30;;;7.03;;
75429;SDS011;64127;51.488;5.462;2023-03-01T17:30:06;8.10;;;7.30;;
75429;SDS011;64127;51.488;5.462;2023-03-01T17:32:41;9.03;;;7.67;;
75429;SDS011;64127;51.488;5.462;2023-03-01T17:35:13;10.03;;;7.40;;
75429;SDS011;64127;51.488;5.462;2023-03-01T17:37:45;8.10;;;7.30;;
75429;SDS011;64127;51.488;5.462;2023-03-01T17:40:17;9.67;;;8.60;;
75429;SDS011;64127;51.488;5.462;2023-03-01T17:42:49;9.83;;;8.83;;
75429;SDS011;64127;51.488;5.462;2023-03-01T17:45:21;9.10;;;8.00;;
75429;SDS011;64127;51.488;5.462;2023-03-01T17:47:53;9.17;;;8.20;;
75429;SDS011;64127;51.488;5.462;2023-03-01T17:50:25;8.67;;;7.83;;
75429;SDS011;64127;51.488;5.462;2023-03-01T17:52:57;8.33;;;7.53;;
75429;SDS011;64127;51.488;5.462;2023-03-01T17:55:30;9.83;;;7.70;;
75429;SDS011;64127;51.488;5.462;2023-03-01T17:58:03;8.63;;;7.77;;
75429;SDS011;64127;51.488;5.462;2023-03-01T18:00:36;8.37;;;7.57;;
75429;SDS011;64127;51.488;5.462;2023-03-01T18:03:09;8.63;;;7.60;;
75429;SDS011;64127;51.488;5.462;2023-03-01T18:05:41;9.23;;;8.13;;
75429;SDS011;64127;51.488;5.462;2023-03-01T18:08:13;9.07;;;8.17;;
75429;SDS011;64127;51.488;5.462;2023-03-01T18:10:45;9.63;;;7.97;;
75429;SDS011;64127;51.488;5.462;2023-03-01T18:13:17;10.77;;;9.20;;
75429;SDS011;64127;51.488;5.462;2023-03-01T18:15:49;12.77;;;9.23;;